sensor_id;sensor_type;location;lat;lon;timestamp;pressure;altitude;pressure_sealevel;temperature
9985;BMP180;16737;50.932;6.780;2023-03-01T00:01:30;101464.00;;;4.50
9985;BMP180;16737;50.932;6.780;2023-03-01T00:03:59;101464.00;;;4.50
9985;BMP180;16737;50.932;6.780;2023-03-01T00:06:27;101463.00;;;4.50
9985;BMP180;16737;50.932;6.780;2023-03-01T00:08:55;101470.00;;;4.50
9985;BMP180;16737;50.932;6.780;2023-03-01T00:11:24;101468.00;;;4.50
9985;BMP180;16737;50.932;6.780;2023-03-01T00:13:55;101473.00;;;4.50
9985;BMP180;16737;50.932;6.780;2023-03-01T00:16:26;101482.00;;;4.50
9985;BMP180;16737;50.932;6.780;2023-03-01T00:18:54;101479.00;;;4.50
9985;BMP180;16737;50.932;6.780;2023-03-01T00:21:22;101477.00;;;4.40
9985;BMP180;16737;50.932;6.780;2023-03-01T00:23:51;101471.00;;;4.40
9985;BMP180;16737;50.932;6.780;2023-03-01T00:26:21;101452.00;;;4.40
9985;BMP180;16737;50.932;6.780;2023-03-01T00:28:51;101486.00;;;4.30
9985;BMP180;16737;50.932;6.780;2023-03-01T00:31:21;101471.00;;;4.40
9985;BMP180;16737;50.932;6.780;2023-03-01T00:33:52;101480.00;;;4.40
9985;BMP180;16737;50.932;6.780;2023-03-01T00:36:19;101473.00;;;4.40
9985;BMP180;16737;50.932;6.780;2023-03-01T00:38:46;101468.00;;;4.30
9985;BMP180;16737;50.932;6.780;2023-03-01T00:41:17;101468.00;;;4.30
9985;BMP180;16737;50.932;6.780;2023-03-01T00:43:45;101471.00;;;4.30
9985;BMP180;16737;50.932;6.780;2023-03-01T00:46:14;101468.00;;;4.30
9985;BMP180;16737;50.932;6.780;2023-03-01T00:48:42;101481.00;;;4.30
9985;BMP180;16737;50.932;6.780;2023-03-01T00:51:11;101469.00;;;4.30
9985;BMP180;16737;50.932;6.780;2023-03-01T00:53:39;101462.00;;;4.30
9985;BMP180;16737;50.932;6.780;2023-03-01T00:56:08;101468.00;;;4.30
9985;BMP180;16737;50.932;6.780;2023-03-01T00:58:38;101444.00;;;4.30
9985;BMP180;16737;50.932;6.780;2023-03-01T01:01:10;101457.00;;;4.30
9985;BMP180;16737;50.932;6.780;2023-03-01T01:03:44;101461.00;;;4.30
9985;BMP180;16737;50.932;6.780;2023-03-01T01:06:16;101455.00;;;4.30
9985;BMP180;16737;50.932;6.780;2023-03-01T01:08:43;101445.00;;;4.20
9985;BMP180;16737;50.932;6.780;2023-03-01T01:11:12;101449.00;;;4.20
9985;BMP180;16737;50.932;6.780;2023-03-01T01:13:43;101415.00;;;4.20
9985;BMP180;16737;50.932;6.780;2023-03-01T01:16:11;101448.00;;;4.10
9985;BMP180;16737;50.932;6.780;2023-03-01T01:18:39;101433.00;;;4.10
9985;BMP180;16737;50.932;6.780;2023-03-01T01:21:09;101424.00;;;4.10
9985;BMP180;16737;50.932;6.780;2023-03-01T01:23:37;101419.00;;;4.00
9985;BMP180;16737;50.932;6.780;2023-03-01T01:26:06;101415.00;;;4.00
9985;BMP180;16737;50.932;6.780;2023-03-01T01:28:34;101423.00;;;4.00
9985;BMP180;16737;50.932;6.780;2023-03-01T01:31:02;101426.00;;;4.00
9985;BMP180;16737;50.932;6.780;2023-03-01T01:33:29;101410.00;;;4.00
9985;BMP180;16737;50.932;6.780;2023-03-01T01:35:57;101418.00;;;3.90
9985;BMP180;16737;50.932;6.780;2023-03-01T01:38:24;101412.00;;;3.90
9985;BMP180;16737;50.932;6.780;2023-03-01T01:40:51;101412.00;;;3.90
9985;BMP180;16737;50.932;6.780;2023-03-01T01:43:22;101409.00;;;3.80
9985;BMP180;16737;50.932;6.780;2023-03-01T01:45:50;101406.00;;;3.90
9985;BMP180;16737;50.932;6.780;2023-03-01T01:48:22;101397.00;;;3.80
9985;BMP180;16737;50.932;6.780;2023-03-01T01:50:57;101378.00;;;3.80
9985;BMP180;16737;50.932;6.780;2023-03-01T01:53:26;101391.00;;;3.80
9985;BMP180;16737;50.932;6.780;2023-03-01T01:55:58;101383.00;;;3.80
9985;BMP180;16737;50.932;6.780;2023-03-01T01:58:29;101379.00;;;3.80
9985;BMP180;16737;50.932;6.780;2023-03-01T02:00:57;101365.00;;;3.80
9985;BMP180;16737;50.932;6.780;2023-03-01T02:03:31;101370.00;;;3.70
9985;BMP180;16737;50.932;6.780;2023-03-01T02:06:06;101385.00;;;3.70
9985;BMP180;16737;50.932;6.780;2023-03-01T02:08:38;101374.00;;;3.70
9985;BMP180;16737;50.932;6.780;2023-03-01T02:11:08;101375.00;;;3.70
9985;BMP180;16737;50.932;6.780;2023-03-01T02:13:35;101367.00;;;3.70
9985;BMP180;16737;50.932;6.780;2023-03-01T02:16:05;101366.00;;;3.70
9985;BMP180;16737;50.932;6.780;2023-03-01T02:18:38;101366.00;;;3.70
9985;BMP180;16737;50.932;6.780;2023-03-01T02:21:25;101368.00;;;3.60
9985;BMP180;16737;50.932;6.780;2023-03-01T02:23:58;101356.00;;;3.60
9985;BMP180;16737;50.932;6.780;2023-03-01T02:26:35;101366.00;;;3.60
9985;BMP180;16737;50.932;6.780;2023-03-01T02:29:08;101340.00;;;3.60
9985;BMP180;16737;50.932;6.780;2023-03-01T02:31:35;101363.00;;;3.60
9985;BMP180;16737;50.932;6.780;2023-03-01T02:34:11;101356.00;;;3.60
9985;BMP180;16737;50.932;6.780;2023-03-01T02:36:43;101367.00;;;3.50
9985;BMP180;16737;50.932;6.780;2023-03-01T02:39:17;101374.00;;;3.50
9985;BMP180;16737;50.932;6.780;2023-03-01T02:41:50;101362.00;;;3.50
9985;BMP180;16737;50.932;6.780;2023-03-01T02:44:20;101367.00;;;3.40
9985;BMP180;16737;50.932;6.780;2023-03-01T02:46:51;101370.00;;;3.40
9985;BMP180;16737;50.932;6.780;2023-03-01T02:49:25;101352.00;;;3.30
9985;BMP180;16737;50.932;6.780;2023-03-01T02:52:27;101368.00;;;3.30
9985;BMP180;16737;50.932;6.780;2023-03-01T02:55:01;101358.00;;;3.30
9985;BMP180;16737;50.932;6.780;2023-03-01T02:57:31;101362.00;;;3.30
9985;BMP180;16737;50.932;6.780;2023-03-01T03:00:06;101367.00;;;3.20
9985;BMP180;16737;50.932;6.780;2023-03-01T03:02:35;101358.00;;;3.20
9985;BMP180;16737;50.932;6.780;2023-03-01T03:05:08;101355.00;;;3.20
9985;BMP180;16737;50.932;6.780;2023-03-01T03:07:39;101366.00;;;3.20
9985;BMP180;16737;50.932;6.780;2023-03-01T03:10:09;101345.00;;;3.20
9985;BMP180;16737;50.932;6.780;2023-03-01T03:12:39;101352.00;;;3.20
9985;BMP180;16737;50.932;6.780;2023-03-01T03:15:10;101338.00;;;3.20
9985;BMP180;16737;50.932;6.780;2023-03-01T03:17:40;101341.00;;;3.20
9985;BMP180;16737;50.932;6.780;2023-03-01T03:20:13;101336.00;;;2.90
9985;BMP180;16737;50.932;6.780;2023-03-01T03:22:45;101341.00;;;3.20
9985;BMP180;16737;50.932;6.780;2023-03-01T03:25:13;101333.00;;;3.20
9985;BMP180;16737;50.932;6.780;2023-03-01T03:27:42;101335.00;;;3.20
9985;BMP180;16737;50.932;6.780;2023-03-01T03:30:16;101335.00;;;3.20
9985;BMP180;16737;50.932;6.780;2023-03-01T03:32:46;101305.00;;;3.20
9985;BMP180;16737;50.932;6.780;2023-03-01T03:35:19;101322.00;;;3.20
9985;BMP180;16737;50.932;6.780;2023-03-01T03:37:46;101309.00;;;3.20
9985;BMP180;16737;50.932;6.780;2023-03-01T03:40:31;101341.00;;;2.90
9985;BMP180;16737;50.932;6.780;2023-03-01T03:42:58;101333.00;;;3.10
9985;BMP180;16737;50.932;6.780;2023-03-01T03:45:27;101331.00;;;3.10
9985;BMP180;16737;50.932;6.780;2023-03-01T03:47:53;101316.00;;;3.10
9985;BMP180;16737;50.932;6.780;2023-03-01T03:50:20;101332.00;;;3.00
9985;BMP180;16737;50.932;6.780;2023-03-01T03:52:47;101319.00;;;3.00
9985;BMP180;16737;50.932;6.780;2023-03-01T03:55:14;101325.00;;;3.00
9985;BMP180;16737;50.932;6.780;2023-03-01T03:57:46;101319.00;;;3.00
9985;BMP180;16737;50.932;6.780;2023-03-01T04:00:20;101306.00;;;3.00
9985;BMP180;16737;50.932;6.780;2023-03-01T04:02:51;101310.00;;;3.00
9985;BMP180;16737;50.932;6.780;2023-03-01T04:05:22;101311.00;;;3.00
9985;BMP180;16737;50.932;6.780;2023-03-01T04:07:49;101310.00;;;2.90
9985;BMP180;16737;50.932;6.780;2023-03-01T04:10:27;101298.00;;;2.90
9985;BMP180;16737;50.932;6.780;2023-03-01T04:12:54;101303.00;;;2.90
9985;BMP180;16737;50.932;6.780;2023-03-01T04:15:24;101297.00;;;2.80
9985;BMP180;16737;50.932;6.780;2023-03-01T04:17:53;101297.00;;;2.80
9985;BMP180;16737;50.932;6.780;2023-03-01T04:20:24;101300.00;;;2.80
9985;BMP180;16737;50.932;6.780;2023-03-01T04:22:56;101293.00;;;2.80
9985;BMP180;16737;50.932;6.780;2023-03-01T04:25:24;101288.00;;;2.80
9985;BMP180;16737;50.932;6.780;2023-03-01T04:27:51;101295.00;;;2.80
9985;BMP180;16737;50.932;6.780;2023-03-01T04:30:18;101291.00;;;2.80
9985;BMP180;16737;50.932;6.780;2023-03-01T04:32:45;101293.00;;;2.80
9985;BMP180;16737;50.932;6.780;2023-03-01T04:35:14;101297.00;;;2.80
9985;BMP180;16737;50.932;6.780;2023-03-01T04:37:41;101285.00;;;2.80
9985;BMP180;16737;50.932;6.780;2023-03-01T04:40:09;101284.00;;;2.80
9985;BMP180;16737;50.932;6.780;2023-03-01T04:42:42;101285.00;;;2.80
9985;BMP180;16737;50.932;6.780;2023-03-01T04:45:10;101286.00;;;2.80
9985;BMP180;16737;50.932;6.780;2023-03-01T04:47:40;101293.00;;;2.80
9985;BMP180;16737;50.932;6.780;2023-03-01T04:50:10;101259.00;;;2.80
9985;BMP180;16737;50.932;6.780;2023-03-01T04:52:39;101290.00;;;2.80
9985;BMP180;16737;50.932;6.780;2023-03-01T04:55:07;101289.00;;;2.80
9985;BMP180;16737;50.932;6.780;2023-03-01T04:57:34;101287.00;;;2.80
9985;BMP180;16737;50.932;6.780;2023-03-01T05:00:01;101266.00;;;2.80
9985;BMP180;16737;50.932;6.780;2023-03-01T05:02:47;101271.00;;;2.80
9985;BMP180;16737;50.932;6.780;2023-03-01T05:05:21;101274.00;;;2.80
9985;BMP180;16737;50.932;6.780;2023-03-01T05:07:53;101280.00;;;2.70
9985;BMP180;16737;50.932;6.780;2023-03-01T05:10:21;101272.00;;;2.70
9985;BMP180;16737;50.932;6.780;2023-03-01T05:12:48;101274.00;;;2.70
9985;BMP180;16737;50.932;6.780;2023-03-01T05:15:15;101288.00;;;2.80
9985;BMP180;16737;50.932;6.780;2023-03-01T05:17:42;101287.00;;;2.70
9985;BMP180;16737;50.932;6.780;2023-03-01T05:20:10;101284.00;;;2.70
9985;BMP180;16737;50.932;6.780;2023-03-01T05:22:37;101281.00;;;2.70
9985;BMP180;16737;50.932;6.780;2023-03-01T05:25:07;101288.00;;;2.70
9985;BMP180;16737;50.932;6.780;2023-03-01T05:27:34;101294.00;;;2.80
9985;BMP180;16737;50.932;6.780;2023-03-01T05:30:02;101291.00;;;2.80
9985;BMP180;16737;50.932;6.780;2023-03-01T05:32:40;101258.00;;;2.80
9985;BMP180;16737;50.932;6.780;2023-03-01T05:35:09;101282.00;;;2.80
9985;BMP180;16737;50.932;6.780;2023-03-01T05:37:42;101288.00;;;2.80
9985;BMP180;16737;50.932;6.780;2023-03-01T05:40:15;101273.00;;;2.70
9985;BMP180;16737;50.932;6.780;2023-03-01T05:42:44;101275.00;;;2.70
9985;BMP180;16737;50.932;6.780;2023-03-01T05:45:12;101276.00;;;2.70
9985;BMP180;16737;50.932;6.780;2023-03-01T05:47:40;101272.00;;;2.70
9985;BMP180;16737;50.932;6.780;2023-03-01T05:50:14;101276.00;;;2.70
9985;BMP180;16737;50.932;6.780;2023-03-01T05:52:46;101271.00;;;2.70
9985;BMP180;16737;50.932;6.780;2023-03-01T05:55:16;101290.00;;;2.70
9985;BMP180;16737;50.932;6.780;2023-03-01T05:57:44;101266.00;;;2.70
9985;BMP180;16737;50.932;6.780;2023-03-01T06:00:13;101277.00;;;2.70
9985;BMP180;16737;50.932;6.780;2023-03-01T06:02:41;101279.00;;;2.70
9985;BMP180;16737;50.932;6.780;2023-03-01T06:05:10;101271.00;;;2.70
9985;BMP180;16737;50.932;6.780;2023-03-01T06:07:37;101273.00;;;2.70
9985;BMP180;16737;50.932;6.780;2023-03-01T06:10:07;101271.00;;;2.70
9985;BMP180;16737;50.932;6.780;2023-03-01T06:12:38;101268.00;;;2.70
9985;BMP180;16737;50.932;6.780;2023-03-01T06:15:07;101279.00;;;2.70
9985;BMP180;16737;50.932;6.780;2023-03-01T06:17:37;101274.00;;;2.70
9985;BMP180;16737;50.932;6.780;2023-03-01T06:20:10;101267.00;;;2.70
9985;BMP180;16737;50.932;6.780;2023-03-01T06:22:37;101277.00;;;2.70
9985;BMP180;16737;50.932;6.780;2023-03-01T06:25:06;101269.00;;;2.70
9985;BMP180;16737;50.932;6.780;2023-03-01T06:27:33;101249.00;;;2.70
9985;BMP180;16737;50.932;6.780;2023-03-01T06:30:02;101269.00;;;2.70
9985;BMP180;16737;50.932;6.780;2023-03-01T06:32:29;101266.00;;;2.70
9985;BMP180;16737;50.932;6.780;2023-03-01T06:34:57;101269.00;;;2.70
9985;BMP180;16737;50.932;6.780;2023-03-01T06:37:25;101266.00;;;2.70
9985;BMP180;16737;50.932;6.780;2023-03-01T06:39:52;101246.00;;;2.70
9985;BMP180;16737;50.932;6.780;2023-03-01T06:42:19;101269.00;;;2.70
9985;BMP180;16737;50.932;6.780;2023-03-01T06:44:46;101278.00;;;2.70
9985;BMP180;16737;50.932;6.780;2023-03-01T06:47:14;101288.00;;;2.70
9985;BMP180;16737;50.932;6.780;2023-03-01T06:49:41;101267.00;;;2.70
9985;BMP180;16737;50.932;6.780;2023-03-01T06:52:08;101264.00;;;2.70
9985;BMP180;16737;50.932;6.780;2023-03-01T06:54:35;101262.00;;;2.70
9985;BMP180;16737;50.932;6.780;2023-03-01T06:57:02;101262.00;;;2.70
9985;BMP180;16737;50.932;6.780;2023-03-01T06:59:29;101265.00;;;2.70
9985;BMP180;16737;50.932;6.780;2023-03-01T07:01:56;101266.00;;;2.70
9985;BMP180;16737;50.932;6.780;2023-03-01T07:04:24;101262.00;;;2.70
9985;BMP180;16737;50.932;6.780;2023-03-01T07:06:54;101272.00;;;2.80
9985;BMP180;16737;50.932;6.780;2023-03-01T07:09:21;101276.00;;;2.80
9985;BMP180;16737;50.932;6.780;2023-03-01T07:11:49;101271.00;;;2.80
9985;BMP180;16737;50.932;6.780;2023-03-01T07:14:16;101266.00;;;2.80
9985;BMP180;16737;50.932;6.780;2023-03-01T07:16:43;101273.00;;;2.80
9985;BMP180;16737;50.932;6.780;2023-03-01T07:19:10;101264.00;;;2.90
9985;BMP180;16737;50.932;6.780;2023-03-01T07:21:38;101273.00;;;2.90
9985;BMP180;16737;50.932;6.780;2023-03-01T07:24:07;101270.00;;;3.00
9985;BMP180;16737;50.932;6.780;2023-03-01T07:26:35;101258.00;;;3.00
9985;BMP180;16737;50.932;6.780;2023-03-01T07:29:04;101253.00;;;3.10
9985;BMP180;16737;50.932;6.780;2023-03-01T07:31:32;101256.00;;;3.10
9985;BMP180;16737;50.932;6.780;2023-03-01T07:33:59;101242.00;;;3.20
9985;BMP180;16737;50.932;6.780;2023-03-01T07:36:26;101254.00;;;3.20
9985;BMP180;16737;50.932;6.780;2023-03-01T07:38:54;101259.00;;;3.30
9985;BMP180;16737;50.932;6.780;2023-03-01T07:41:21;101254.00;;;3.30
9985;BMP180;16737;50.932;6.780;2023-03-01T07:43:48;101263.00;;;3.40
9985;BMP180;16737;50.932;6.780;2023-03-01T07:46:15;101255.00;;;3.40
9985;BMP180;16737;50.932;6.780;2023-03-01T07:48:44;101253.00;;;3.50
9985;BMP180;16737;50.932;6.780;2023-03-01T07:51:11;101244.00;;;3.50
9985;BMP180;16737;50.932;6.780;2023-03-01T07:53:38;101255.00;;;3.60
9985;BMP180;16737;50.932;6.780;2023-03-01T07:56:09;101259.00;;;3.60
9985;BMP180;16737;50.932;6.780;2023-03-01T07:58:39;101259.00;;;3.70
9985;BMP180;16737;50.932;6.780;2023-03-01T08:01:12;101251.00;;;3.70
9985;BMP180;16737;50.932;6.780;2023-03-01T08:03:39;101224.00;;;3.80
9985;BMP180;16737;50.932;6.780;2023-03-01T08:06:08;101249.00;;;3.80
9985;BMP180;16737;50.932;6.780;2023-03-01T08:08:36;101259.00;;;3.90
9985;BMP180;16737;50.932;6.780;2023-03-01T08:11:07;101258.00;;;3.90
9985;BMP180;16737;50.932;6.780;2023-03-01T08:13:34;101241.00;;;4.00
9985;BMP180;16737;50.932;6.780;2023-03-01T08:16:02;101251.00;;;4.00
9985;BMP180;16737;50.932;6.780;2023-03-01T08:18:29;101247.00;;;4.10
9985;BMP180;16737;50.932;6.780;2023-03-01T08:21:01;101257.00;;;4.10
9985;BMP180;16737;50.932;6.780;2023-03-01T08:23:28;101258.00;;;4.20
9985;BMP180;16737;50.932;6.780;2023-03-01T08:26:03;101237.00;;;4.20
9985;BMP180;16737;50.932;6.780;2023-03-01T08:28:31;101261.00;;;4.30
9985;BMP180;16737;50.932;6.780;2023-03-01T08:30:58;101264.00;;;4.40
9985;BMP180;16737;50.932;6.780;2023-03-01T08:33:25;101261.00;;;4.40
9985;BMP180;16737;50.932;6.780;2023-03-01T08:35:52;101261.00;;;4.50
9985;BMP180;16737;50.932;6.780;2023-03-01T08:38:19;101266.00;;;4.50
9985;BMP180;16737;50.932;6.780;2023-03-01T08:40:46;101269.00;;;4.60
9985;BMP180;16737;50.932;6.780;2023-03-01T08:43:13;101260.00;;;4.60
9985;BMP180;16737;50.932;6.780;2023-03-01T08:45:41;101259.00;;;4.70
9985;BMP180;16737;50.932;6.780;2023-03-01T08:48:08;101266.00;;;4.80
9985;BMP180;16737;50.932;6.780;2023-03-01T08:50:35;101260.00;;;4.90
9985;BMP180;16737;50.932;6.780;2023-03-01T08:53:02;101255.00;;;4.90
9985;BMP180;16737;50.932;6.780;2023-03-01T08:55:29;101264.00;;;5.00
9985;BMP180;16737;50.932;6.780;2023-03-01T08:57:56;101260.00;;;5.10
9985;BMP180;16737;50.932;6.780;2023-03-01T09:00:24;101258.00;;;5.20
9985;BMP180;16737;50.932;6.780;2023-03-01T09:02:53;101262.00;;;5.20
9985;BMP180;16737;50.932;6.780;2023-03-01T09:05:19;101255.00;;;5.30
9985;BMP180;16737;50.932;6.780;2023-03-01T09:07:46;101249.00;;;5.40
9985;BMP180;16737;50.932;6.780;2023-03-01T09:10:13;101263.00;;;5.50
9985;BMP180;16737;50.932;6.780;2023-03-01T09:12:40;101265.00;;;5.60
9985;BMP180;16737;50.932;6.780;2023-03-01T09:15:09;101261.00;;;5.70
9985;BMP180;16737;50.932;6.780;2023-03-01T09:17:36;101245.00;;;5.80
9985;BMP180;16737;50.932;6.780;2023-03-01T09:20:06;101246.00;;;5.90
9985;BMP180;16737;50.932;6.780;2023-03-01T09:22:33;101249.00;;;6.00
9985;BMP180;16737;50.932;6.780;2023-03-01T09:25:00;101250.00;;;6.20
9985;BMP180;16737;50.932;6.780;2023-03-01T09:27:27;101252.00;;;6.30
9985;BMP180;16737;50.932;6.780;2023-03-01T09:29:54;101246.00;;;6.50
9985;BMP180;16737;50.932;6.780;2023-03-01T09:32:21;101246.00;;;6.60
9985;BMP180;16737;50.932;6.780;2023-03-01T09:34:48;101246.00;;;6.80
9985;BMP180;16737;50.932;6.780;2023-03-01T09:37:32;101238.00;;;6.90
9985;BMP180;16737;50.932;6.780;2023-03-01T09:39:59;101240.00;;;7.00
9985;BMP180;16737;50.932;6.780;2023-03-01T09:42:29;101251.00;;;7.10
9985;BMP180;16737;50.932;6.780;2023-03-01T09:45:02;101240.00;;;7.20
9985;BMP180;16737;50.932;6.780;2023-03-01T09:47:33;101242.00;;;7.30
9985;BMP180;16737;50.932;6.780;2023-03-01T09:50:06;101229.00;;;7.40
9985;BMP180;16737;50.932;6.780;2023-03-01T09:52:42;101227.00;;;7.60
9985;BMP180;16737;50.932;6.780;2023-03-01T09:55:14;101233.00;;;7.70
9985;BMP180;16737;50.932;6.780;2023-03-01T09:57:48;101238.00;;;7.90
9985;BMP180;16737;50.932;6.780;2023-03-01T10:00:30;101233.00;;;8.00
9985;BMP180;16737;50.932;6.780;2023-03-01T10:03:11;101228.00;;;8.20
9985;BMP180;16737;50.932;6.780;2023-03-01T10:05:52;101237.00;;;8.40
9985;BMP180;16737;50.932;6.780;2023-03-01T10:08:31;101229.00;;;8.60
9985;BMP180;16737;50.932;6.780;2023-03-01T10:11:02;101225.00;;;8.70
9985;BMP180;16737;50.932;6.780;2023-03-01T10:13:43;101235.00;;;8.90
9985;BMP180;16737;50.932;6.780;2023-03-01T10:16:21;101238.00;;;9.10
9985;BMP180;16737;50.932;6.780;2023-03-01T10:18:56;101232.00;;;9.20
9985;BMP180;16737;50.932;6.780;2023-03-01T10:21:28;101219.00;;;9.40
9985;BMP180;16737;50.932;6.780;2023-03-01T10:24:10;101228.00;;;9.50
9985;BMP180;16737;50.932;6.780;2023-03-01T10:26:47;101230.00;;;9.60
9985;BMP180;16737;50.932;6.780;2023-03-01T10:29:15;101213.00;;;9.70
9985;BMP180;16737;50.932;6.780;2023-03-01T10:31:46;101216.00;;;9.80
9985;BMP180;16737;50.932;6.780;2023-03-01T10:34:17;101215.00;;;10.00
9985;BMP180;16737;50.932;6.780;2023-03-01T10:36:49;101219.00;;;10.00
9985;BMP180;16737;50.932;6.780;2023-03-01T10:39:21;101227.00;;;10.10
9985;BMP180;16737;50.932;6.780;2023-03-01T10:41:58;101219.00;;;10.20
9985;BMP180;16737;50.932;6.780;2023-03-01T10:44:48;101210.00;;;10.30
9985;BMP180;16737;50.932;6.780;2023-03-01T10:47:20;101207.00;;;10.40
9985;BMP180;16737;50.932;6.780;2023-03-01T10:50:03;101209.00;;;10.50
9985;BMP180;16737;50.932;6.780;2023-03-01T10:52:34;101211.00;;;10.60
9985;BMP180;16737;50.932;6.780;2023-03-01T10:55:25;101194.00;;;10.60
9985;BMP180;16737;50.932;6.780;2023-03-01T10:58:09;101212.00;;;10.70
9985;BMP180;16737;50.932;6.780;2023-03-01T11:00:49;101204.00;;;10.70
9985;BMP180;16737;50.932;6.780;2023-03-01T11:03:21;101204.00;;;10.80
9985;BMP180;16737;50.932;6.780;2023-03-01T11:05:57;101211.00;;;10.90
9985;BMP180;16737;50.932;6.780;2023-03-01T11:08:40;101206.00;;;10.90
9985;BMP180;16737;50.932;6.780;2023-03-01T11:11:21;101190.00;;;11.00
9985;BMP180;16737;50.932;6.780;2023-03-01T11:13:59;101193.00;;;11.10
9985;BMP180;16737;50.932;6.780;2023-03-01T11:16:33;101180.00;;;11.20
9985;BMP180;16737;50.932;6.780;2023-03-01T11:19:20;101185.00;;;11.20
9985;BMP180;16737;50.932;6.780;2023-03-01T11:22:01;101183.00;;;11.30
9985;BMP180;16737;50.932;6.780;2023-03-01T11:24:40;101166.00;;;11.40
9985;BMP180;16737;50.932;6.780;2023-03-01T11:27:18;101152.00;;;11.40
9985;BMP180;16737;50.932;6.780;2023-03-01T11:29:52;101158.00;;;11.50
9985;BMP180;16737;50.932;6.780;2023-03-01T11:32:24;101159.00;;;11.50
9985;BMP180;16737;50.932;6.780;2023-03-01T11:34:57;101149.00;;;11.60
9985;BMP180;16737;50.932;6.780;2023-03-01T11:37:36;101159.00;;;11.60
9985;BMP180;16737;50.932;6.780;2023-03-01T11:40:16;101159.00;;;11.70
9985;BMP180;16737;50.932;6.780;2023-03-01T11:43:00;101155.00;;;11.80
9985;BMP180;16737;50.932;6.780;2023-03-01T11:45:45;101154.00;;;11.90
9985;BMP180;16737;50.932;6.780;2023-03-01T11:48:35;101147.00;;;12.00
9985;BMP180;16737;50.932;6.780;2023-03-01T11:51:15;101157.00;;;12.10
9985;BMP180;16737;50.932;6.780;2023-03-01T11:54:01;101136.00;;;12.20
9985;BMP180;16737;50.932;6.780;2023-03-01T11:56:35;101144.00;;;12.30
9985;BMP180;16737;50.932;6.780;2023-03-01T11:59:48;101142.00;;;12.30
9985;BMP180;16737;50.932;6.780;2023-03-01T12:02:56;101136.00;;;12.30
9985;BMP180;16737;50.932;6.780;2023-03-01T12:05:52;101138.00;;;12.30
9985;BMP180;16737;50.932;6.780;2023-03-01T12:08:35;101138.00;;;12.30
9985;BMP180;16737;50.932;6.780;2023-03-01T12:11:21;101131.00;;;12.30
9985;BMP180;16737;50.932;6.780;2023-03-01T12:14:34;101123.00;;;12.30
9985;BMP180;16737;50.932;6.780;2023-03-01T12:17:31;101106.00;;;12.40
9985;BMP180;16737;50.932;6.780;2023-03-01T12:20:22;101110.00;;;12.50
9985;BMP180;16737;50.932;6.780;2023-03-01T12:23:33;101117.00;;;12.60
9985;BMP180;16737;50.932;6.780;2023-03-01T12:26:10;101117.00;;;12.60
9985;BMP180;16737;50.932;6.780;2023-03-01T12:28:55;101074.00;;;12.60
9985;BMP180;16737;50.932;6.780;2023-03-01T12:35:27;101103.00;;;12.70
9985;BMP180;16737;50.932;6.780;2023-03-01T12:38:12;101104.00;;;12.80
9985;BMP180;16737;50.932;6.780;2023-03-01T12:41:36;101096.00;;;12.80
9985;BMP180;16737;50.932;6.780;2023-03-01T12:44:23;101102.00;;;12.80
9985;BMP180;16737;50.932;6.780;2023-03-01T12:47:13;101109.00;;;12.80
9985;BMP180;16737;50.932;6.780;2023-03-01T12:49:48;101091.00;;;12.90
9985;BMP180;16737;50.932;6.780;2023-03-01T12:52:22;101091.00;;;12.90
9985;BMP180;16737;50.932;6.780;2023-03-01T12:54:53;101084.00;;;12.90
9985;BMP180;16737;50.932;6.780;2023-03-01T12:57:29;101088.00;;;13.00
9985;BMP180;16737;50.932;6.780;2023-03-01T13:00:21;101085.00;;;13.00
9985;BMP180;16737;50.932;6.780;2023-03-01T13:03:00;101077.00;;;13.00
9985;BMP180;16737;50.932;6.780;2023-03-01T13:05:45;101071.00;;;13.00
9985;BMP180;16737;50.932;6.780;2023-03-01T13:08:20;101074.00;;;13.00
9985;BMP180;16737;50.932;6.780;2023-03-01T13:10:54;101074.00;;;12.90
9985;BMP180;16737;50.932;6.780;2023-03-01T13:13:26;101059.00;;;13.00
9985;BMP180;16737;50.932;6.780;2023-03-01T13:15:54;101062.00;;;13.00
9985;BMP180;16737;50.932;6.780;2023-03-01T13:18:31;101052.00;;;13.00
9985;BMP180;16737;50.932;6.780;2023-03-01T13:21:02;101039.00;;;13.10
9985;BMP180;16737;50.932;6.780;2023-03-01T13:23:34;101063.00;;;13.20
9985;BMP180;16737;50.932;6.780;2023-03-01T13:26:09;101052.00;;;13.30
9985;BMP180;16737;50.932;6.780;2023-03-01T13:29:01;101051.00;;;13.30
9985;BMP180;16737;50.932;6.780;2023-03-01T13:31:58;101050.00;;;13.30
9985;BMP180;16737;50.932;6.780;2023-03-01T13:34:52;101044.00;;;13.20
9985;BMP180;16737;50.932;6.780;2023-03-01T13:37:35;101051.00;;;13.20
9985;BMP180;16737;50.932;6.780;2023-03-01T13:40:57;101048.00;;;13.30
9985;BMP180;16737;50.932;6.780;2023-03-01T13:43:30;101037.00;;;13.30
9985;BMP180;16737;50.932;6.780;2023-03-01T13:45:59;101039.00;;;13.40
9985;BMP180;16737;50.932;6.780;2023-03-01T13:48:29;101040.00;;;13.40
9985;BMP180;16737;50.932;6.780;2023-03-01T13:51:02;101029.00;;;13.40
9985;BMP180;16737;50.932;6.780;2023-03-01T13:53:35;101032.00;;;13.40
9985;BMP180;16737;50.932;6.780;2023-03-01T13:56:09;101033.00;;;13.50
9985;BMP180;16737;50.932;6.780;2023-03-01T13:58:50;101041.00;;;13.50
9985;BMP180;16737;50.932;6.780;2023-03-01T14:01:27;101026.00;;;13.50
9985;BMP180;16737;50.932;6.780;2023-03-01T14:03:57;101025.00;;;13.50
9985;BMP180;16737;50.932;6.780;2023-03-01T14:06:28;101018.00;;;13.60
9985;BMP180;16737;50.932;6.780;2023-03-01T14:09:05;101022.00;;;13.50
9985;BMP180;16737;50.932;6.780;2023-03-01T14:12:16;101029.00;;;13.50
9985;BMP180;16737;50.932;6.780;2023-03-01T14:14:54;101020.00;;;13.40
9985;BMP180;16737;50.932;6.780;2023-03-01T14:17:46;101014.00;;;13.40
9985;BMP180;16737;50.932;6.780;2023-03-01T14:20:20;101021.00;;;13.40
9985;BMP180;16737;50.932;6.780;2023-03-01T14:22:52;101010.00;;;13.40
9985;BMP180;16737;50.932;6.780;2023-03-01T14:25:26;101002.00;;;13.40
9985;BMP180;16737;50.932;6.780;2023-03-01T14:28:00;101000.00;;;13.50
9985;BMP180;16737;50.932;6.780;2023-03-01T14:30:34;100991.00;;;13.40
9985;BMP180;16737;50.932;6.780;2023-03-01T14:33:06;100993.00;;;13.40
9985;BMP180;16737;50.932;6.780;2023-03-01T14:35:36;100996.00;;;13.40
9985;BMP180;16737;50.932;6.780;2023-03-01T14:38:04;100980.00;;;13.40
9985;BMP180;16737;50.932;6.780;2023-03-01T14:40:35;100980.00;;;13.40
9985;BMP180;16737;50.932;6.780;2023-03-01T14:43:11;100969.00;;;13.30
9985;BMP180;16737;50.932;6.780;2023-03-01T14:45:38;100959.00;;;13.40
9985;BMP180;16737;50.932;6.780;2023-03-01T14:48:07;100965.00;;;13.40
9985;BMP180;16737;50.932;6.780;2023-03-01T14:50:40;100953.00;;;13.40
9985;BMP180;16737;50.932;6.780;2023-03-01T14:53:18;100932.00;;;13.30
9985;BMP180;16737;50.932;6.780;2023-03-01T14:55:50;100963.00;;;13.30